Time;durP1;ratioP1;P1;durP2;ratioP2;P2;SDS_P1;SDS_P2;PMS_P1;PMS_P2;Temp;Humidity;BMP_temperature;BMP_pressure;BME280_temperature;BME280_humidity;BME280_pressure;Samples;Min_cycle;Max_cycle;Signal;HPM_P1;HPM_P2
2021/01/18 15:16:40;;;;;;;69.10;30.60;;;;;;;;;;5052988;28;20471;-90
2021/01/18 15:19:07;;;;;;;63.50;30.93;;;-13.60;80.50;;;;;;5053114;28;20032;-92
2021/01/18 15:21:33;;;;;;;65.00;30.80;;;;;;;;;;5053193;28;20104;-93
2021/01/18 15:24:02;;;;;;;68.30;33.10;;;-13.30;81.90;;;;;;5051753;28;20036;-92
2021/01/18 15:26:30;;;;;;;63.97;30.60;;;;;;;;;;5051815;28;20040;-93
2021/01/18 15:28:55;;;;;;;57.60;28.58;;;-13.00;83.10;;;;;;5054077;28;20020;-93
2021/01/18 15:31:21;;;;;;;57.42;27.95;;;-13.00;83.40;;;;;;5065690;28;20020;-91
2021/01/18 15:33:47;;;;;;;63.58;30.02;;;-12.90;83.80;;;;;;5071216;28;20029;-91
2021/01/18 15:36:15;;;;;;;63.35;29.20;;;-13.00;84.50;;;;;;5070894;28;20492;-93
2021/01/18 15:38:42;;;;;;;76.78;35.03;;;-12.40;84.40;;;;;;5069548;28;20025;-92
2021/01/18 15:41:15;;;;;;;68.70;31.95;;;-12.90;84.10;;;;;;5070803;28;20048;-92
2021/01/18 15:43:41;;;;;;;68.25;31.55;;;-12.80;84.90;;;;;;5070715;28;20507;-92
2021/01/18 15:46:11;;;;;;;77.65;35.65;;;-12.80;84.90;;;;;;5071905;28;20098;-94
2021/01/18 15:48:38;;;;;;;76.57;34.42;;;-12.70;84.90;;;;;;5071963;28;20057;-92
2021/01/18 15:51:26;;;;;;;78.05;35.92;;;-12.80;84.70;;;;;;5074621;28;20079;-94
2021/01/18 15:53:51;;;;;;;89.35;39.75;;;-12.80;84.60;;;;;;5075239;28;20019;-94
2021/01/18 15:56:36;;;;;;;77.55;36.10;;;-12.70;84.50;;;;;;5060146;28;20119;-95
2021/01/18 15:59:03;;;;;;;68.18;34.63;;;-12.80;84.30;;;;;;5062551;28;20029;-95
2021/01/18 16:01:32;;;;;;;78.55;39.20;;;-12.70;84.70;;;;;;5056377;28;20029;-96
2021/01/18 16:06:59;;;;;;;75.15;36.67;;;-12.80;84.20;;;;;;5362797;22;20041;-96
2021/01/18 16:12:16;;;;;;;74.82;34.13;;;-12.80;84.10;;;;;;5391359;22;20056;-96
2021/01/18 16:14:44;;;;;;;74.45;33.72;;;-12.80;84.10;;;;;;5035352;28;20009;-96
2021/01/18 16:17:10;;;;;;;77.20;36.47;;;-12.80;84.70;;;;;;5034597;28;20028;-96
2021/01/18 16:19:37;;;;;;;69.30;32.08;;;-12.80;84.60;;;;;;5041254;28;20018;-95
2021/01/18 16:22:05;;;;;;;86.70;38.03;;;-12.90;83.80;;;;;;5022827;28;20057;-95
2021/01/18 16:24:35;;;;;;;71.05;34.22;;;-12.90;84.40;;;;;;5012468;28;20041;-96
2021/01/18 16:27:04;;;;;;;78.90;35.95;;;-13.00;84.00;;;;;;5017004;28;20017;-96
2021/01/18 16:29:40;;;;;;;81.97;36.22;;;-12.90;84.10;;;;;;5015366;28;20028;-95
2021/01/18 16:32:29;;;;;;;75.57;34.47;;;-12.90;84.20;;;;;;5028671;28;20045;-95
2021/01/18 16:34:55;;;;;;;84.70;34.28;;;-12.90;84.10;;;;;;5006616;28;20022;-96
2021/01/18 16:37:28;;;;;;;82.03;33.38;;;-12.90;84.20;;;;;;5020578;23;20093;-96
2021/01/18 16:39:53;;;;;;;94.63;41.22;;;-12.90;84.80;;;;;;4999247;28;20023;-96
2021/01/18 16:42:20;;;;;;;79.03;35.08;;;-12.90;84.70;;;;;;5000185;28;20114;-96
2021/01/18 16:44:48;;;;;;;75.32;35.67;;;-12.90;84.70;;;;;;4992737;28;20022;-95
2021/01/18 17:23:32;;;;;;;101.18;40.15;;;-13.00;84.50;;;;;;5561168;23;20078;-94
2021/01/18 17:26:02;;;;;;;102.30;40.60;;;;;;;;;;5647010;23;20069;-96
2021/01/18 17:28:32;;;;;;;97.57;38.05;;;-13.00;84.90;;;;;;4977310;28;20042;-93
2021/01/18 17:30:58;;;;;;;97.95;37.83;;;-12.90;85.50;;;;;;5113134;23;20121;-94
2021/01/18 17:36:52;;;;;;;99.53;40.17;;;-13.00;85.20;;;;;;5472039;23;20033;-95
2021/01/18 17:39:40;;;;;;;148.82;53.75;;;-12.90;84.80;;;;;;4991005;28;20035;-95
2021/01/18 17:42:08;;;;;;;147.82;49.55;;;-12.90;84.70;;;;;;4970304;28;20034;-96
2021/01/18 17:44:33;;;;;;;144.15;50.47;;;-12.90;85.30;;;;;;4941428;28;20034;-95
2021/01/18 17:47:04;;;;;;;127.75;46.88;;;-12.90;85.30;;;;;;4974975;28;20391;-93
2021/01/18 17:49:30;;;;;;;141.30;48.08;;;-12.90;84.80;;;;;;4955665;28;20034;-93
2021/01/18 17:52:06;;;;;;;121.50;45.47;;;;;;;;;;4980153;28;20011;-96
2021/01/18 17:54:34;;;;;;;112.40;44.97;;;-12.80;84.90;;;;;;4960898;28;20023;-96
2021/01/18 17:57:04;;;;;;;121.88;48.03;;;-12.80;84.90;;;;;;4952343;28;20027;-96
2021/01/18 17:59:32;;;;;;;103.20;44.03;;;-12.80;85.00;;;;;;4945978;28;20039;-96
2021/01/18 18:01:58;;;;;;;121.80;42.95;;;-12.80;84.70;;;;;;4974171;28;20031;-96
2021/01/18 18:04:47;;;;;;;108.72;41.10;;;-12.80;84.80;;;;;;5004254;23;20431;-96
2021/01/18 18:07:18;;;;;;;106.78;39.33;;;-12.80;84.80;;;;;;5096423;23;20054;-96
2021/01/18 18:09:44;;;;;;;104.90;41.33;;;-12.80;84.70;;;;;;4958377;28;20380;-92
2021/01/18 18:12:10;;;;;;;93.95;35.92;;;-12.80;85.30;;;;;;4959292;28;20023;-91
2021/01/18 18:14:37;;;;;;;99.75;37.53;;;-12.60;85.30;;;;;;4960285;28;20054;-94
2021/01/18 18:17:03;;;;;;;104.78;37.20;;;-12.70;85.30;;;;;;4958147;28;20022;-93
2021/01/18 18:56:05;;;;;;;69.13;29.52;;;-13.50;81.90;;;;;;6145427;23;20036;31
2021/01/18 19:10:34;;;;;;;64.53;26.27;;;-13.20;84.50;;;;;;4975170;28;20122;-94
2021/01/18 19:12:59;;;;;;;54.28;24.15;;;-13.30;84.80;;;;;;4974180;28;20408;-95
2021/01/18 19:15:25;;;;;;;54.70;25.42;;;-13.10;85.10;;;;;;4960547;28;20031;-92
2021/01/18 19:17:51;;;;;;;65.38;27.27;;;-13.00;85.60;;;;;;4959979;28;20031;-92
2021/01/18 19:20:18;;;;;;;62.55;24.55;;;-13.00;85.40;;;;;;4954198;28;20035;-94
2021/01/18 19:23:16;;;;;;;65.93;25.13;;;-12.90;85.50;;;;;;4979210;28;20489;-96
2021/01/18 19:26:12;;;;;;;;;;;;;;;;;;;;;
2021/01/18 19:32:20;;;;;;;58.67;24.52;;;-12.90;84.90;;;;;;5317256;23;20073;-94
2021/01/18 19:34:46;;;;;;;50.00;22.85;;;-12.80;85.40;;;;;;5039470;28;20034;-91
2021/01/18 19:37:13;;;;;;;46.22;21.88;;;-12.90;84.90;;;;;;5031967;28;20409;-90
2021/01/18 19:39:41;;;;;;;55.13;22.17;;;-12.80;86.00;;;;;;5005262;28;20116;-91
2021/01/18 19:42:07;;;;;;;42.63;19.23;;;-12.50;85.60;;;;;;5020234;28;20033;-88
2021/01/18 19:44:33;;;;;;;48.35;24.40;;;-12.70;85.10;;;;;;5004083;28;20026;-92
2021/01/18 19:46:59;;;;;;;47.22;20.85;;;-12.80;85.10;;;;;;5023245;28;20425;-92
2021/01/18 19:49:25;;;;;;;43.03;20.58;;;-12.70;84.90;;;;;;5014715;28;20029;-93
2021/01/18 19:51:52;;;;;;;59.60;24.58;;;-10.30;86.70;;;;;;5034667;28;20028;-92
2021/01/18 19:54:21;;;;;;;49.40;22.60;;;-12.70;85.10;;;;;;5004545;28;20022;-93
2021/01/18 19:56:48;;;;;;;56.97;22.13;;;-12.70;85.00;;;;;;5001751;28;20022;-90
2021/01/18 19:59:18;;;;;;;49.17;21.23;;;-12.70;85.50;;;;;;5022947;28;20033;-90
2021/01/18 20:01:46;;;;;;;42.50;20.55;;;-12.70;85.50;;;;;;5021066;28;20041;-91
2021/01/18 20:04:12;;;;;;;43.55;19.88;;;-12.70;85.50;;;;;;4994866;28;20029;-91
2021/01/18 20:06:39;;;;;;;57.47;22.52;;;-12.70;84.60;;;;;;4998405;28;20454;-91
2021/01/18 20:09:06;;;;;;;56.35;22.70;;;-12.70;84.80;;;;;;5020085;28;20071;-92
2021/01/18 20:11:35;;;;;;;52.40;22.50;;;-12.90;84.60;;;;;;5004663;28;20084;-91
2021/01/18 20:14:01;;;;;;;49.58;22.08;;;;;;;;;;4994411;28;20026;-91
2021/01/18 20:16:27;;;;;;;51.70;21.60;;;-12.70;84.70;;;;;;4991693;28;20045;-93
2021/01/18 20:18:58;;;;;;;56.03;23.42;;;-12.80;84.50;;;;;;4989302;28;20379;-91
2021/01/18 20:21:26;;;;;;;55.55;23.30;;;-12.70;84.50;;;;;;4997878;28;20029;-92
2021/01/18 20:45:58;;;;;;;69.82;27.67;;;;;;;;;;5053753;28;20381;-91
2021/01/18 20:48:24;;;;;;;58.10;23.30;;;;;;;;;;5052028;28;20052;-93
